createdAt,value
2018-11-03T00:00:17.352Z,30.05
2018-11-03T00:02:47.262Z,27.32
2018-11-03T00:05:16.656Z,27.13
2018-11-03T00:07:46.592Z,25.27
2018-11-03T00:10:16.204Z,25.23
2018-11-03T00:12:45.420Z,27.10
2018-11-03T00:15:14.696Z,24.80
2018-11-03T00:17:44.261Z,25.63
2018-11-03T00:20:13.336Z,25.30
2018-11-03T00:22:42.637Z,26.97
2018-11-03T00:25:12.550Z,26.03
2018-11-03T00:27:41.478Z,25.20
2018-11-03T00:30:12.535Z,26.07
2018-11-03T00:32:41.959Z,24.37
2018-11-03T00:35:11.062Z,23.63
2018-11-03T00:37:40.388Z,26.37
2018-11-03T00:40:11.482Z,27.57
2018-11-03T00:42:40.740Z,26.57
2018-11-03T00:45:11.736Z,22.73
2018-11-03T00:47:41.660Z,22.50
2018-11-03T00:50:12.376Z,23.43
2018-11-03T00:52:42.004Z,23.00
2018-11-03T00:55:11.613Z,23.67
2018-11-03T00:57:41.883Z,22.87
2018-11-03T01:00:14.773Z,23.93
2018-11-03T01:02:46.058Z,21.83
2018-11-03T01:05:15.384Z,21.83
2018-11-03T01:07:45.024Z,22.40
2018-11-03T01:10:14.544Z,22.03
2018-11-03T01:12:43.843Z,22.80
2018-11-03T01:15:13.997Z,22.83
2018-11-03T01:17:43.493Z,22.97
2018-11-03T01:20:14.935Z,21.70
2018-11-03T01:22:44.307Z,23.23
2018-11-03T01:25:13.582Z,22.53
2018-11-03T01:27:43.034Z,21.13
2018-11-03T01:30:16.030Z,20.97
2018-11-03T01:32:45.167Z,22.30
2018-11-03T01:35:14.503Z,20.50
2018-11-03T01:37:43.977Z,21.90
2018-11-03T01:40:13.877Z,21.20
2018-11-03T01:42:43.003Z,20.40
2018-11-03T01:45:12.638Z,21.70
2018-11-03T01:47:42.446Z,22.30
2018-11-03T01:50:12.547Z,21.40
2018-11-03T01:52:42.517Z,20.60
2018-11-03T01:55:12.106Z,20.87
2018-11-03T01:57:41.117Z,21.37
2018-11-03T02:00:11.251Z,20.50
2018-11-03T02:02:40.688Z,20.20
2018-11-03T02:05:10.437Z,20.67
2018-11-03T02:07:39.971Z,20.60
2018-11-03T02:10:10.117Z,19.83
2018-11-03T02:12:39.252Z,21.10
2018-11-03T02:15:08.711Z,20.73
2018-11-03T02:17:38.429Z,19.27
2018-11-03T02:20:08.872Z,18.07
2018-11-03T02:22:38.636Z,18.50
2018-11-03T02:25:08.172Z,17.80
2018-11-03T02:27:38.085Z,16.47
2018-11-03T02:30:08.265Z,17.57
2018-11-03T02:32:37.663Z,18.77
2018-11-03T02:35:07.265Z,19.40
2018-11-03T02:37:36.781Z,19.80
2018-11-03T02:40:07.017Z,20.00
2018-11-03T02:42:36.109Z,18.83
2018-11-03T02:45:07.041Z,16.70
2018-11-03T02:47:36.441Z,18.77
2018-11-03T02:50:07.244Z,16.67
2018-11-03T02:52:36.335Z,16.80
2018-11-03T02:55:05.903Z,17.80
2018-11-03T02:57:35.024Z,16.30
2018-11-03T03:00:04.232Z,18.37
2018-11-03T03:02:33.596Z,18.90
2018-11-03T03:05:03.061Z,17.40
2018-11-03T03:07:32.175Z,16.90
2018-11-03T03:10:01.394Z,16.65
2018-11-03T03:12:30.483Z,18.13
2018-11-03T03:14:59.788Z,17.27
2018-11-03T03:17:29.037Z,17.23
2018-11-03T03:19:58.666Z,15.80
2018-11-03T03:22:27.840Z,17.03
2018-11-03T03:25:04.157Z,18.03
2018-11-03T03:27:33.609Z,16.50
2018-11-03T03:30:02.630Z,17.47
2018-11-03T03:32:32.150Z,16.17
2018-11-03T03:35:01.663Z,14.60
2018-11-03T03:37:30.819Z,14.53
2018-11-03T03:40:07.939Z,15.23
2018-11-03T03:42:36.932Z,15.43
2018-11-03T03:45:06.920Z,16.43
2018-11-03T03:47:36.606Z,15.57
2018-11-03T03:50:06.605Z,15.53
2018-11-03T03:52:35.916Z,15.13
2018-11-03T03:55:05.605Z,15.50
2018-11-03T03:57:34.818Z,15.43
2018-11-03T04:00:04.092Z,15.47
2018-11-03T04:02:33.754Z,14.50
2018-11-03T04:05:03.158Z,14.23
2018-11-03T04:07:32.342Z,14.17
2018-11-03T04:10:01.893Z,13.40
2018-11-03T04:12:31.265Z,13.20
2018-11-03T04:15:00.525Z,15.80
2018-11-03T04:17:30.057Z,14.77
2018-11-03T04:19:59.302Z,14.07
2018-11-03T04:22:28.405Z,14.87
2018-11-03T04:24:57.917Z,14.73
2018-11-03T04:27:27.330Z,13.30
2018-11-03T04:29:56.326Z,15.43
2018-11-03T04:32:25.758Z,13.03
2018-11-03T04:34:55.153Z,14.07
2018-11-03T04:37:24.167Z,14.00
2018-11-03T04:39:53.261Z,14.10
2018-11-03T04:42:22.583Z,13.63
2018-11-03T04:44:51.813Z,12.57
2018-11-03T04:47:21.311Z,14.13
2018-11-03T04:49:50.698Z,13.27
2018-11-03T04:52:19.995Z,12.70
2018-11-03T04:54:49.370Z,13.17
2018-11-03T04:57:18.748Z,12.90
2018-11-03T04:59:47.884Z,13.40
2018-11-03T05:02:17.182Z,13.80
2018-11-03T05:04:46.276Z,13.87
2018-11-03T05:07:15.953Z,13.67
2018-11-03T05:09:45.270Z,13.07
2018-11-03T05:12:14.523Z,12.10
2018-11-03T05:14:43.683Z,12.93
2018-11-03T05:17:12.980Z,13.33
2018-11-03T05:19:42.635Z,12.53
2018-11-03T05:22:11.638Z,13.53
2018-11-03T05:24:40.901Z,12.73
2018-11-03T05:27:10.447Z,13.23
2018-11-03T05:29:39.360Z,13.27
2018-11-03T05:32:08.711Z,13.20
2018-11-03T05:34:38.329Z,12.57
2018-11-03T05:37:07.573Z,12.97
2018-11-03T05:39:36.711Z,13.63
2018-11-03T05:42:06.512Z,11.77
2018-11-03T05:44:38.698Z,12.27
2018-11-03T05:47:08.953Z,11.60
2018-11-03T05:49:38.516Z,12.93
2018-11-03T05:52:07.520Z,12.80
2018-11-03T05:54:37.576Z,13.50
2018-11-03T05:57:06.948Z,12.70
2018-11-03T05:59:35.899Z,12.33
2018-11-03T06:02:05.396Z,11.83
2018-11-03T06:04:34.679Z,12.07
2018-11-03T06:07:03.780Z,11.23
2018-11-03T06:09:33.668Z,11.37
2018-11-03T06:12:02.835Z,12.00
2018-11-03T06:14:31.865Z,11.77
2018-11-03T06:17:01.341Z,12.50
2018-11-03T06:19:30.475Z,12.90
2018-11-03T06:22:06.664Z,11.73
2018-11-03T06:24:36.415Z,11.95
2018-11-03T06:27:05.728Z,12.00
2018-11-03T06:29:35.432Z,10.93
2018-11-03T06:32:04.618Z,10.33
2018-11-03T06:34:33.458Z,11.67
2018-11-03T06:37:04.518Z,11.50
2018-11-03T06:39:33.755Z,10.20
2018-11-03T06:42:03.004Z,10.88
2018-11-03T06:44:33.585Z,10.43
2018-11-03T06:47:04.996Z,11.10
2018-11-03T06:49:36.338Z,10.10
2018-11-03T06:52:05.635Z,11.07
2018-11-03T06:54:35.026Z,10.60
2018-11-03T06:57:05.521Z,9.90
2018-11-03T06:59:36.417Z,10.43
2018-11-03T07:02:06.479Z,10.80
2018-11-03T07:04:35.770Z,10.63
2018-11-03T07:07:05.044Z,10.53
2018-11-03T07:09:35.443Z,9.43
2018-11-03T07:12:04.565Z,10.57
2018-11-03T07:14:33.849Z,10.30
2018-11-03T07:17:03.349Z,9.93
2018-11-03T07:19:33.303Z,9.97
2018-11-03T07:22:02.325Z,9.63
2018-11-03T07:24:31.867Z,10.80
2018-11-03T07:27:01.065Z,11.23
2018-11-03T07:29:30.275Z,10.23
2018-11-03T07:31:59.995Z,10.00
2018-11-03T07:34:29.306Z,10.60
2018-11-03T07:37:05.161Z,12.57
2018-11-03T07:39:34.053Z,9.93
2018-11-03T07:42:03.420Z,9.90
2018-11-03T07:44:32.717Z,10.63
2018-11-03T07:47:01.785Z,11.03
2018-11-03T07:49:31.398Z,11.13
2018-11-03T07:52:00.614Z,11.77
2018-11-03T07:54:29.716Z,9.90
2018-11-03T07:56:59.001Z,10.90
2018-11-03T07:59:28.640Z,11.43
2018-11-03T08:01:57.915Z,10.00
2018-11-03T08:04:27.806Z,11.20
2018-11-03T08:06:56.981Z,9.97
2018-11-03T08:09:26.116Z,10.40
2018-11-03T08:11:55.522Z,11.60
2018-11-03T08:14:24.817Z,11.20
2018-11-03T08:16:54.017Z,13.25
2018-11-03T08:19:23.852Z,11.53
2018-11-03T08:21:53.098Z,11.33
2018-11-03T08:24:22.101Z,10.77
2018-11-03T08:26:52.017Z,10.17
2018-11-03T08:29:21.411Z,10.13
2018-11-03T08:31:50.662Z,9.80
2018-11-03T08:34:19.591Z,10.37
2018-11-03T08:36:48.947Z,9.57
2018-11-03T08:39:17.769Z,9.67
2018-11-03T08:41:46.777Z,9.07
2018-11-03T08:44:15.689Z,11.03
2018-11-03T08:46:44.452Z,10.07
2018-11-03T08:49:13.438Z,10.07
2018-11-03T08:51:42.619Z,10.48
2018-11-03T08:54:11.703Z,9.80
2018-11-03T08:56:41.263Z,9.23
2018-11-03T08:59:11.043Z,9.87
2018-11-03T09:01:40.109Z,9.23
2018-11-03T09:04:09.453Z,9.17
2018-11-03T09:06:38.441Z,9.10
2018-11-03T09:09:07.987Z,9.97
2018-11-03T09:11:37.296Z,8.67
2018-11-03T09:14:06.457Z,9.70
2018-11-03T09:16:35.707Z,9.05
2018-11-03T09:19:05.863Z,8.97
2018-11-03T09:21:35.300Z,8.83
2018-11-03T09:24:04.736Z,8.08
2018-11-03T09:26:34.068Z,9.80
2018-11-03T09:29:03.624Z,9.43
2018-11-03T09:31:32.741Z,8.50
2018-11-03T09:34:02.099Z,9.63
2018-11-03T09:36:31.652Z,9.15
2018-11-03T09:39:03.665Z,9.27
2018-11-03T09:41:33.264Z,10.00
2018-11-03T09:44:02.299Z,8.30
2018-11-03T09:46:31.753Z,8.60
2018-11-03T09:49:01.657Z,8.20
2018-11-03T09:51:30.864Z,9.07
2018-11-03T09:54:00.129Z,8.37
2018-11-03T09:56:29.680Z,8.33
2018-11-03T09:58:58.563Z,8.23
2018-11-03T10:01:27.705Z,8.40
2018-11-03T10:03:57.071Z,8.10
2018-11-03T10:06:26.415Z,8.03
2018-11-03T10:08:56.860Z,9.30
2018-11-03T10:11:26.781Z,8.13
2018-11-03T10:13:56.080Z,8.80
2018-11-03T10:16:25.237Z,8.03
2018-11-03T10:18:54.812Z,8.13
2018-11-03T10:21:24.017Z,7.37
2018-11-03T10:23:53.279Z,7.43
2018-11-03T10:26:23.185Z,8.08
2018-11-03T10:28:52.547Z,8.05
2018-11-03T10:31:21.809Z,7.77
2018-11-03T10:33:51.486Z,7.90
2018-11-03T10:36:20.614Z,7.80
2018-11-03T10:38:49.852Z,7.17
2018-11-03T10:41:19.507Z,8.03
2018-11-03T10:43:48.478Z,7.57
2018-11-03T10:46:17.667Z,7.47
2018-11-03T10:48:47.694Z,7.12
2018-11-03T10:51:16.871Z,6.77
2018-11-03T10:53:47.182Z,7.17
2018-11-03T10:56:17.010Z,6.97
2018-11-03T10:58:46.336Z,6.57
2018-11-03T11:01:20.921Z,7.87
2018-11-03T11:03:55.648Z,7.60
2018-11-03T11:06:29.983Z,7.90
2018-11-03T11:09:04.590Z,7.23
2018-11-03T11:11:39.138Z,6.97
2018-11-03T11:14:08.520Z,7.27
2018-11-03T11:16:37.481Z,7.60
2018-11-03T11:19:07.405Z,6.90
2018-11-03T11:21:37.541Z,6.33
2018-11-03T11:24:06.570Z,6.65
2018-11-03T11:26:36.083Z,7.57
2018-11-03T11:29:05.757Z,6.57
2018-11-03T11:31:34.980Z,6.07
2018-11-03T11:34:04.217Z,6.50
2018-11-03T11:36:33.670Z,6.50
2018-11-03T11:39:02.728Z,7.30
2018-11-03T11:41:32.060Z,7.00
2018-11-03T11:44:01.418Z,6.00
2018-11-03T11:46:30.480Z,6.30
2018-11-03T11:48:59.841Z,6.47
2018-11-03T11:51:29.703Z,6.07
2018-11-03T11:53:58.875Z,7.30
2018-11-03T11:56:28.253Z,6.83
2018-11-03T11:58:57.789Z,6.93
2018-11-03T12:01:27.104Z,6.07
2018-11-03T12:03:56.596Z,6.80
2018-11-03T12:06:25.914Z,6.47
2018-11-03T12:08:54.814Z,6.70
2018-11-03T12:11:24.176Z,6.07
2018-11-03T12:13:53.521Z,6.17
2018-11-03T12:16:22.561Z,5.80
2018-11-03T12:18:52.014Z,6.33
2018-11-03T12:21:21.525Z,5.73
2018-11-03T12:23:51.541Z,6.33
2018-11-03T12:26:21.446Z,5.53
2018-11-03T12:28:50.983Z,5.60
2018-11-03T12:31:20.215Z,5.83
2018-11-03T12:33:50.247Z,6.43
2018-11-03T12:36:19.523Z,5.87
2018-11-03T12:38:49.109Z,5.83
2018-11-03T12:41:18.433Z,5.72
2018-11-03T12:43:47.778Z,6.13
2018-11-03T12:46:17.296Z,5.27
2018-11-03T12:48:46.680Z,5.50
2018-11-03T12:51:15.973Z,5.63
2018-11-03T12:53:45.457Z,5.90
2018-11-03T12:56:14.640Z,5.77
2018-11-03T12:58:43.990Z,5.63
2018-11-03T13:01:13.206Z,5.73
2018-11-03T13:03:42.643Z,5.63
2018-11-03T13:06:11.912Z,5.77
2018-11-03T13:08:41.081Z,5.30
2018-11-03T13:11:10.267Z,5.47
2018-11-03T13:13:40.403Z,5.17
2018-11-03T13:16:09.805Z,5.57
2018-11-03T13:18:39.158Z,5.70
2018-11-03T13:21:08.679Z,5.53
2018-11-03T13:23:37.942Z,5.47
2018-11-03T13:26:07.026Z,5.70
2018-11-03T13:28:36.784Z,5.00
2018-11-03T13:31:06.203Z,5.20
2018-11-03T13:33:35.525Z,5.73
2018-11-03T13:36:05.615Z,5.17
2018-11-03T13:38:34.912Z,5.57
2018-11-03T13:41:04.147Z,5.40
2018-11-03T13:43:33.426Z,5.33
2018-11-03T13:46:02.846Z,5.60
2018-11-03T13:48:31.916Z,5.33
2018-11-03T13:51:01.227Z,5.13
2018-11-03T13:53:30.938Z,4.80
2018-11-03T13:56:00.283Z,5.37
2018-11-03T13:58:30.038Z,5.33
2018-11-03T14:00:59.144Z,4.90
2018-11-03T14:03:28.335Z,5.70
2018-11-03T14:05:57.991Z,5.63
2018-11-03T14:08:27.345Z,5.73
2018-11-03T14:10:56.488Z,4.70
2018-11-03T14:13:25.804Z,5.23
2018-11-03T14:15:56.254Z,5.37
2018-11-03T14:18:25.629Z,5.23
2018-11-03T14:20:54.973Z,5.50
2018-11-03T14:23:24.296Z,5.03
2018-11-03T14:25:53.589Z,4.67
2018-11-03T14:28:23.251Z,4.83
2018-11-03T14:30:52.626Z,5.20
2018-11-03T14:33:21.896Z,5.03
2018-11-03T14:35:51.256Z,6.00
2018-11-03T14:38:20.841Z,5.07
2018-11-03T14:40:49.988Z,5.60
2018-11-03T14:43:19.109Z,5.00
2018-11-03T14:45:48.973Z,5.17
2018-11-03T14:48:18.201Z,5.37
2018-11-03T14:50:47.627Z,5.03
2018-11-03T14:53:17.049Z,5.27
2018-11-03T14:55:45.964Z,4.70
2018-11-03T14:58:15.410Z,5.10
2018-11-03T15:00:44.872Z,4.37
2018-11-03T15:03:14.041Z,4.80
2018-11-03T15:05:43.406Z,5.00
2018-11-03T15:08:13.033Z,5.23
2018-11-03T15:10:42.229Z,4.90
2018-11-03T15:13:11.460Z,5.53
2018-11-03T15:15:40.638Z,5.10
2018-11-03T15:18:10.253Z,4.50
2018-11-03T15:20:39.985Z,5.10
2018-11-03T15:23:09.203Z,4.70
2018-11-03T15:25:38.194Z,4.50
2018-11-03T15:28:07.610Z,5.93
2018-11-03T15:30:36.942Z,5.13
2018-11-03T15:33:05.989Z,4.83
2018-11-03T15:35:35.381Z,4.73
2018-11-03T15:38:04.941Z,5.07
2018-11-03T15:40:34.014Z,4.87
2018-11-03T15:43:03.274Z,4.57
2018-11-03T15:45:32.571Z,4.80
2018-11-03T15:48:01.750Z,4.77
2018-11-03T15:50:30.924Z,4.83
2018-11-03T15:53:00.813Z,5.00
2018-11-03T15:55:29.805Z,4.63
2018-11-03T15:57:59.565Z,5.00
2018-11-03T16:00:28.806Z,4.80
2018-11-03T16:02:57.877Z,5.10
2018-11-03T16:05:27.571Z,5.07
2018-11-03T16:07:56.756Z,4.50
2018-11-03T16:10:25.800Z,4.30
2018-11-03T16:12:55.333Z,4.60
2018-11-03T16:15:24.714Z,4.87
2018-11-03T16:17:53.988Z,5.30
2018-11-03T16:20:23.379Z,4.07
2018-11-03T16:22:54.505Z,5.47
2018-11-03T16:25:23.712Z,4.80
2018-11-03T16:27:52.907Z,6.10
2018-11-03T16:30:22.129Z,5.17
2018-11-03T16:32:51.344Z,5.10
2018-11-03T16:35:20.818Z,5.77
2018-11-03T16:37:50.093Z,5.47
2018-11-03T16:40:19.080Z,5.10
2018-11-03T16:42:48.749Z,5.75
2018-11-03T16:45:18.035Z,6.13
2018-11-03T16:47:47.000Z,5.37
2018-11-03T16:50:16.751Z,5.20
2018-11-03T16:52:46.428Z,5.63
2018-11-03T16:55:16.036Z,5.42
2018-11-03T16:57:45.557Z,5.20
2018-11-03T17:00:16.090Z,6.27
2018-11-03T17:02:45.854Z,6.13
2018-11-03T17:05:15.705Z,6.37
2018-11-03T17:07:45.532Z,7.20
2018-11-03T17:10:15.962Z,7.97
2018-11-03T17:12:46.531Z,7.30
2018-11-03T17:15:16.111Z,7.87
2018-11-03T17:17:45.027Z,7.87
2018-11-03T17:20:14.608Z,7.70
2018-11-03T17:22:44.141Z,8.70
2018-11-03T17:25:13.573Z,7.23
2018-11-03T17:27:42.894Z,9.27
2018-11-03T17:30:14.608Z,8.10
2018-11-03T17:32:44.141Z,7.13
2018-11-03T17:35:13.448Z,7.70
2018-11-03T17:37:43.297Z,7.83
2018-11-03T17:40:12.948Z,7.77
2018-11-03T17:42:42.197Z,7.87
2018-11-03T17:45:11.918Z,7.47
2018-11-03T17:47:41.958Z,8.33
2018-11-03T17:50:12.792Z,7.93
2018-11-03T17:52:42.092Z,8.43
2018-11-03T17:55:11.428Z,7.60
2018-11-03T17:57:40.754Z,7.13
2018-11-03T18:00:12.180Z,7.70
2018-11-03T18:02:41.551Z,8.10
2018-11-03T18:05:10.802Z,7.93
2018-11-03T18:07:39.844Z,7.70
2018-11-03T18:10:10.681Z,8.00
2018-11-03T18:12:39.963Z,8.07
2018-11-03T18:15:09.599Z,6.97
2018-11-03T18:17:39.406Z,7.67
2018-11-03T18:20:09.935Z,7.97
2018-11-03T18:22:39.272Z,7.37
2018-11-03T18:25:09.010Z,7.40
2018-11-03T18:27:38.352Z,7.20
2018-11-03T18:30:08.811Z,12.43
2018-11-03T18:32:39.147Z,12.00
2018-11-03T18:35:08.356Z,11.00
2018-11-03T18:37:37.630Z,9.77
2018-11-03T18:40:07.852Z,8.80
2018-11-03T18:42:37.445Z,9.20
2018-11-03T18:45:06.804Z,11.57
2018-11-03T18:47:39.846Z,13.83
2018-11-03T18:50:10.931Z,11.47
2018-11-03T18:52:40.385Z,11.93
2018-11-03T18:55:10.567Z,12.17
2018-11-03T18:57:40.054Z,12.43
2018-11-03T19:00:09.961Z,11.77
2018-11-03T19:02:39.991Z,10.93
2018-11-03T19:05:09.418Z,12.77
2018-11-03T19:07:38.852Z,10.50
2018-11-03T19:10:09.182Z,10.30
2018-11-03T19:12:38.295Z,10.70
2018-11-03T19:15:08.468Z,9.80
2018-11-03T19:17:38.232Z,8.90
2018-11-03T19:20:09.251Z,8.67
2018-11-03T19:22:38.590Z,9.30
2018-11-03T19:25:09.375Z,9.20
2018-11-03T19:27:38.723Z,9.03
2018-11-03T19:30:09.807Z,9.27
2018-11-03T19:32:39.309Z,8.40
2018-11-03T19:35:08.710Z,9.20
2018-11-03T19:37:37.978Z,8.93
2018-11-03T19:40:07.951Z,9.93
2018-11-03T19:42:37.681Z,8.30
2018-11-03T19:45:07.312Z,8.27
2018-11-03T19:47:37.289Z,8.97
2018-11-03T19:50:08.255Z,9.37
2018-11-03T19:52:37.521Z,8.58
2018-11-03T19:55:06.936Z,9.03
2018-11-03T20:00:30.670Z,7.93
2018-11-03T20:02:59.972Z,8.10
2018-11-03T20:05:31.270Z,7.30
2018-11-03T20:08:00.641Z,8.07
2018-11-03T20:10:29.953Z,7.57
2018-11-03T20:12:59.748Z,7.87
2018-11-03T20:15:28.968Z,8.00
2018-11-03T20:17:58.292Z,7.23
2018-11-03T20:20:27.661Z,7.53
2018-11-03T20:22:57.404Z,7.37
2018-11-03T20:25:27.165Z,7.40
2018-11-03T20:27:56.645Z,7.73
2018-11-03T20:30:26.135Z,7.60
2018-11-03T20:32:55.370Z,6.87
2018-11-03T20:35:25.252Z,7.60
2018-11-03T20:37:54.438Z,7.43
2018-11-03T20:40:23.562Z,6.57
2018-11-03T20:42:53.210Z,7.20
2018-11-03T20:45:22.454Z,6.50
2018-11-03T20:47:51.825Z,7.13
2018-11-03T20:50:21.471Z,7.00
2018-11-03T20:52:50.686Z,7.17
2018-11-03T20:55:19.825Z,7.03
2018-11-03T20:57:49.886Z,7.70
2018-11-03T21:00:19.929Z,7.93
2018-11-03T21:02:49.488Z,7.30
2018-11-03T21:05:19.220Z,7.60
2018-11-03T21:07:49.481Z,7.20
2018-11-03T21:10:21.017Z,7.00
2018-11-03T21:12:50.356Z,7.00
2018-11-03T21:15:22.197Z,6.73
2018-11-03T21:17:52.181Z,7.53
2018-11-03T21:20:21.431Z,5.97
2018-11-03T21:22:50.906Z,6.87
2018-11-03T21:25:23.267Z,5.70
2018-11-03T21:27:54.436Z,6.57
2018-11-03T21:30:23.495Z,7.00
2018-11-03T21:32:53.240Z,6.27
2018-11-03T21:35:22.330Z,6.43
2018-11-03T21:37:51.797Z,7.00
2018-11-03T21:40:21.400Z,6.70
2018-11-03T21:42:50.649Z,6.83
2018-11-03T21:45:20.089Z,6.03
2018-11-03T21:47:49.408Z,6.37
2018-11-03T21:50:18.771Z,6.37
2018-11-03T21:52:48.007Z,7.07
2018-11-03T21:55:17.289Z,5.97
2018-11-03T21:57:46.892Z,6.60
2018-11-03T22:00:15.995Z,6.78
2018-11-03T22:02:45.398Z,6.70
2018-11-03T22:05:15.133Z,6.53
2018-11-03T22:07:44.842Z,6.20
2018-11-03T22:10:14.065Z,6.67
2018-11-03T22:12:43.562Z,6.27
2018-11-03T22:15:12.864Z,6.47
2018-11-03T22:17:46.888Z,6.03
2018-11-03T22:20:18.015Z,6.47
2018-11-03T22:22:53.549Z,6.63
2018-11-03T22:25:23.071Z,6.20
2018-11-03T22:27:52.269Z,5.53
2018-11-03T22:30:21.809Z,6.47
2018-11-03T22:32:51.178Z,6.37
2018-11-03T22:35:20.480Z,6.20
2018-11-03T22:37:51.636Z,6.23
2018-11-03T22:40:21.125Z,6.60
2018-11-03T22:42:50.036Z,6.47
2018-11-03T22:45:20.570Z,6.43
2018-11-03T22:47:56.690Z,6.93
2018-11-03T22:50:26.319Z,6.07
2018-11-03T22:52:55.383Z,6.30
2018-11-03T22:55:24.596Z,6.37
2018-11-03T22:57:53.950Z,6.43
2018-11-03T23:00:23.039Z,6.20
2018-11-03T23:02:52.487Z,5.37
2018-11-03T23:05:21.639Z,5.93
2018-11-03T23:07:51.031Z,5.70
2018-11-03T23:10:20.385Z,5.90
2018-11-03T23:12:49.638Z,6.17
2018-11-03T23:15:18.824Z,6.23
2018-11-03T23:17:48.375Z,6.90
2018-11-03T23:20:17.506Z,6.13
2018-11-03T23:22:46.534Z,6.33
2018-11-03T23:25:15.988Z,6.10
2018-11-03T23:27:45.543Z,5.80
2018-11-03T23:30:14.672Z,5.17
2018-11-03T23:32:44.429Z,6.30
2018-11-03T23:35:14.262Z,6.00
2018-11-03T23:37:43.712Z,6.00
2018-11-03T23:40:12.869Z,5.47
2018-11-03T23:42:42.116Z,5.20
2018-11-03T23:45:11.682Z,5.73
2018-11-03T23:47:41.524Z,5.63
2018-11-03T23:50:12.577Z,5.37
2018-11-03T23:52:46.696Z,5.60
2018-11-03T23:55:15.943Z,4.80
2018-11-03T23:57:45.172Z,5.43
